Time;durP1;ratioP1;P1;durP2;ratioP2;P2;SDS_P1;SDS_P2;PMS_P1;PMS_P2;Temp;Humidity;BMP_temperature;BMP_pressure;BME280_temperature;BME280_humidity;BME280_pressure;Samples;Min_cycle;Max_cycle;Signal;HPM_P1;HPM_P2
2023/11/15 00:02:11;;;;;;;19.40;6.68;;;;;;;8.14;74.01;93564.06;4891975;29;20359;-83
2023/11/15 00:04:36;;;;;;;17.90;7.75;;;;;;;8.09;74.58;93538.44;4892175;29;20029;-83
2023/11/15 00:07:02;;;;;;;24.70;9.68;;;;;;;8.12;74.84;93543.13;4890785;29;20315;-82
2023/11/15 00:10:13;;;;;;;19.00;6.70;;;;;;;8.13;75.14;93544.69;4891876;29;20093;-80
2023/11/15 00:12:39;;;;;;;17.10;7.07;;;;;;;8.16;74.91;93533.47;4884512;29;20033;-80
2023/11/15 00:15:06;;;;;;;17.02;6.25;;;;;;;8.19;75.03;93545.34;4890839;29;20075;-80
2023/11/15 00:17:31;;;;;;;20.83;6.90;;;;;;;8.25;74.67;93562.72;4889767;29;20033;-80
2023/11/15 00:20:03;;;;;;;23.58;5.00;;;;;;;8.24;74.49;93563.78;4891581;29;20101;-80
2023/11/15 00:22:29;;;;;;;;;;;;;;;8.27;74.29;93565.06;4892067;29;20037;-80
2023/11/15 00:24:54;;;;;;;14.85;4.65;;;;;;;8.22;74.18;93553.50;4890499;29;19956;-80
2023/11/15 00:27:20;;;;;;;10.75;3.90;;;;;;;8.21;74.32;93535.97;4890412;29;20021;-80
2023/11/15 00:29:45;;;;;;;23.13;4.80;;;;;;;8.23;74.12;93533.03;4891323;29;20123;-80
2023/11/15 00:32:11;;;;;;;10.45;3.75;;;;;;;8.22;74.03;93532.25;4890359;29;20047;-80
2023/11/15 00:34:36;;;;;;;8.50;4.00;;;;;;;8.22;74.42;93534.09;4891581;29;20028;-80
2023/11/15 00:37:22;;;;;;;8.43;3.53;;;;;;;8.17;74.72;93529.72;4891214;29;20029;-80
2023/11/15 00:39:47;;;;;;;11.13;4.30;;;;;;;8.18;74.64;93523.34;4890301;29;20033;-80
2023/11/15 00:42:13;;;;;;;8.80;3.63;;;;;;;8.23;74.39;93544.44;4890263;29;20389;-80
2023/11/15 00:44:41;;;;;;;11.07;4.07;;;;;;;8.26;74.18;93532.41;4890384;29;20274;-80
2023/11/15 00:47:06;;;;;;;11.88;3.70;;;;;;;8.26;74.10;93547.56;4890797;29;20028;-79
2023/11/15 00:49:32;;;;;;;7.82;3.88;;;;;;;8.24;74.06;93538.03;4891230;29;20020;-80
2023/11/15 00:51:58;;;;;;;15.18;4.40;;;;;;;8.20;74.54;93549.56;4891245;29;20024;-80
2023/11/15 00:54:24;;;;;;;14.07;3.53;;;;;;;8.18;74.36;93547.22;4891000;29;20040;-80
2023/11/15 00:56:50;;;;;;;8.82;3.80;;;;;;;8.12;74.46;93550.28;4890820;29;20087;-82
2023/11/15 00:59:21;;;;;;;8.82;3.15;;;;;;;8.14;74.46;93540.97;4889967;29;20025;-80
2023/11/15 01:01:57;;;;;;;6.55;3.13;;;;;;;8.11;74.67;93525.63;4889561;29;20290;-81
2023/11/15 01:04:24;;;;;;;14.23;3.78;;;;;;;8.10;74.82;93533.88;4890898;29;20041;-79
2023/11/15 01:06:49;;;;;;;8.13;3.55;;;;;;;8.11;74.98;93536.25;4889779;29;20208;-79
2023/11/15 01:09:16;;;;;;;12.10;3.60;;;;;;;8.15;75.28;93542.50;4889799;29;20028;-80
2023/11/15 01:11:41;;;;;;;12.57;4.28;;;;;;;8.19;75.19;93535.50;4889537;29;20047;-80
2023/11/15 01:14:07;;;;;;;14.75;4.45;;;;;;;8.15;75.22;93523.16;4890871;29;20319;-80
2023/11/15 01:16:32;;;;;;;13.57;4.20;;;;;;;8.15;75.24;93510.66;4890673;29;20100;-80
2023/11/15 01:18:57;;;;;;;15.32;3.78;;;;;;;8.17;75.33;93519.09;4890732;29;20128;-81
2023/11/15 01:21:23;;;;;;;9.45;4.07;;;;;;;8.18;75.38;93511.91;4890599;29;20024;-81
2023/11/15 01:23:48;;;;;;;13.48;4.35;;;;;;;8.13;75.16;93494.25;4890483;29;20109;-81
2023/11/15 01:26:14;;;;;;;12.32;4.10;;;;;;;8.07;75.80;93492.81;4890550;29;20028;-81
2023/11/15 01:28:39;;;;;;;9.32;4.05;;;;;;;8.02;76.42;93490.31;4889689;29;20091;-81
2023/11/15 01:31:05;;;;;;;7.97;3.80;;;;;;;8.04;76.75;93496.88;4890480;29;20024;-80
2023/11/15 01:33:31;;;;;;;15.57;4.45;;;;;;;8.09;76.75;93489.88;4889304;29;20057;-81
2023/11/15 01:35:56;;;;;;;14.27;4.22;;;;;;;8.13;76.33;93482.88;4890154;29;20032;-81
2023/11/15 01:38:22;;;;;;;14.57;3.88;;;;;;;8.20;75.79;93493.81;4889231;29;20020;-81
2023/11/15 01:40:48;;;;;;;9.63;3.70;;;;;;;8.20;76.16;93513.19;4890231;29;20081;-81
2023/11/15 01:43:16;;;;;;;19.05;4.70;;;;;;;8.23;75.78;93507.25;4890252;29;20040;-80
2023/11/15 01:45:48;;;;;;;12.05;4.78;;;;;;;8.21;75.87;93493.50;4890253;29;20025;-80
2023/11/15 01:48:16;;;;;;;13.45;4.45;;;;;;;8.20;75.91;93484.00;4888903;29;20033;-79
2023/11/15 01:50:46;;;;;;;10.77;4.00;;;;;;;8.18;75.96;93477.41;4890249;29;20266;-82
2023/11/15 01:53:13;;;;;;;13.38;4.90;;;;;;;8.20;76.07;93473.38;4888118;29;20264;-82
2023/11/15 01:55:39;;;;;;;19.92;4.13;;;;;;;8.18;76.02;93462.28;4889122;29;20044;-83
2023/11/15 01:58:06;;;;;;;10.93;5.72;;;;;;;8.20;75.74;93459.28;4887030;29;20204;-83
2023/11/15 02:00:35;;;;;;;9.45;4.07;;;;;;;8.23;75.83;93471.97;4889102;29;20032;-83
2023/11/15 02:03:01;;;;;;;6.82;3.45;;;;;;;8.27;75.60;93453.56;4888520;29;20029;-83
2023/11/15 02:05:27;;;;;;;8.88;3.90;;;;;;;8.31;75.65;93451.84;4889930;29;20046;-83
2023/11/15 02:07:53;;;;;;;12.75;4.07;;;;;;;8.33;75.40;93441.69;4889918;29;20025;-83
2023/11/15 02:10:19;;;;;;;13.07;5.13;;;;;;;8.32;75.15;93429.50;4889843;29;20025;-83
2023/11/15 02:12:46;;;;;;;9.63;3.78;;;;;;;8.40;74.74;93426.09;4889554;29;20048;-83
2023/11/15 02:15:15;;;;;;;10.45;4.10;;;;;;;8.39;74.86;93421.88;4889623;29;20399;-83
2023/11/15 02:17:42;;;;;;;10.25;3.47;;;;;;;8.38;74.66;93396.41;4889724;29;20032;-83
2023/11/15 02:20:08;;;;;;;11.02;3.97;;;;;;;8.38;74.27;93415.00;4889767;29;20029;-83
2023/11/15 02:22:41;;;;;;;8.52;3.75;;;;;;;8.32;75.01;93403.72;4889367;29;20036;-82
2023/11/15 02:25:07;;;;;;;15.32;4.22;;;;;;;8.40;75.17;93394.22;4888830;29;20269;-84
2023/11/15 02:27:32;;;;;;;11.02;3.55;;;;;;;8.46;75.08;93355.81;4888587;29;20112;-84
2023/11/15 02:29:57;;;;;;;16.17;3.58;;;;;;;8.51;74.49;93389.41;4889668;29;20024;-84
2023/11/15 02:32:23;;;;;;;9.00;3.53;;;;;;;8.56;74.30;93376.00;4889576;29;20020;-82
2023/11/15 02:34:48;;;;;;;12.88;3.15;;;;;;;8.52;74.38;93389.09;4889255;29;20025;-82
2023/11/15 02:37:14;;;;;;;9.20;3.63;;;;;;;8.53;74.66;93345.53;4888096;29;20032;-82
2023/11/15 02:39:40;;;;;;;9.77;3.10;;;;;;;8.57;75.50;93373.03;4889436;29;20031;-82
2023/11/15 02:42:06;;;;;;;10.73;3.75;;;;;;;8.70;74.74;93375.84;4889173;29;20032;-82
2023/11/15 02:44:34;;;;;;;7.93;3.35;;;;;;;8.69;74.33;93379.59;4888145;29;20032;-82
2023/11/15 02:47:00;;;;;;;8.75;3.78;;;;;;;8.71;74.52;93404.78;4889076;29;20088;-82
2023/11/15 02:49:26;;;;;;;12.55;4.35;;;;;;;8.53;74.34;93413.78;4889135;29;20032;-82
2023/11/15 02:51:51;;;;;;;12.98;4.53;;;;;;;8.48;74.19;93380.19;4889073;29;20184;-81
2023/11/15 02:54:16;;;;;;;10.82;4.75;;;;;;;8.47;74.32;93391.94;4888976;29;20064;-81
2023/11/15 02:56:42;;;;;;;10.57;4.80;;;;;;;8.40;74.93;93405.63;4889127;29;20029;-81
2023/11/15 02:59:07;;;;;;;16.88;5.57;;;;;;;8.39;74.91;93409.38;4889158;29;20032;-81
2023/11/15 03:01:33;;;;;;;11.40;4.85;;;;;;;8.35;75.17;93383.75;4887773;29;20040;-81
2023/11/15 03:03:59;;;;;;;16.33;4.55;;;;;;;8.34;75.28;93406.06;4889031;29;20053;-81
2023/11/15 03:06:24;;;;;;;14.77;4.75;;;;;;;8.36;75.39;93435.75;4887797;29;20092;-81
2023/11/15 03:08:50;;;;;;;10.05;4.60;;;;;;;8.28;75.57;93426.69;4888945;29;20319;-81
2023/11/15 03:11:15;;;;;;;9.98;4.80;;;;;;;8.28;75.98;93402.00;4888715;29;20219;-84
2023/11/15 03:13:41;;;;;;;10.93;4.03;;;;;;;8.28;76.08;93450.56;4887798;29;20382;-80
2023/11/15 03:16:07;;;;;;;10.50;4.53;;;;;;;8.31;75.88;93418.09;4888799;29;20021;-80
2023/11/15 03:18:32;;;;;;;9.80;4.25;;;;;;;8.34;75.60;93388.25;4888859;29;20041;-80
2023/11/15 03:20:59;;;;;;;9.98;4.18;;;;;;;8.34;75.71;93435.28;4887543;29;20021;-80
2023/11/15 03:23:24;;;;;;;14.82;4.57;;;;;;;8.35;75.89;93384.53;4888878;29;20337;-80
2023/11/15 03:25:50;;;;;;;8.18;3.72;;;;;;;8.38;75.73;93430.91;4888703;29;20044;-81
2023/11/15 03:28:16;;;;;;;15.05;4.80;;;;;;;8.41;75.47;93403.78;4887524;29;20040;-80
2023/11/15 03:30:41;;;;;;;9.27;3.55;;;;;;;8.43;75.60;93375.06;4888603;29;20053;-80
2023/11/15 03:33:07;;;;;;;9.35;3.63;;;;;;;8.46;75.64;93398.31;4888719;29;20039;-80
2023/11/15 03:35:32;;;;;;;11.90;3.83;;;;;;;8.56;75.27;93376.75;4888532;29;20044;-80
2023/11/15 03:37:58;;;;;;;13.32;3.80;;;;;;;8.60;75.20;93361.00;4888678;29;20099;-80
2023/11/15 03:40:24;;;;;;;11.27;4.13;;;;;;;8.64;75.10;93362.69;4888501;29;20033;-80
2023/11/15 03:42:50;;;;;;;10.68;3.28;;;;;;;8.72;74.53;93377.09;4888516;29;20025;-80
2023/11/15 03:45:16;;;;;;;8.65;3.67;;;;;;;8.79;74.35;93395.22;4888614;29;20104;-83
2023/11/15 03:47:41;;;;;;;9.25;3.55;;;;;;;8.82;74.18;93387.41;4887396;29;20025;-82
2023/11/15 03:50:07;;;;;;;10.50;3.67;;;;;;;8.85;73.96;93351.44;4888541;29;20025;-82
2023/11/15 03:52:33;;;;;;;15.32;3.90;;;;;;;8.86;73.48;93395.53;4888225;29;20032;-82
2023/11/15 03:54:58;;;;;;;7.57;3.13;;;;;;;8.88;73.53;93366.78;4888520;29;20036;-82
2023/11/15 03:57:26;;;;;;;11.30;3.38;;;;;;;8.91;73.60;93360.81;4888353;29;20196;-81
2023/11/15 03:59:53;;;;;;;9.02;3.35;;;;;;;8.94;73.18;93399.31;4888339;29;20025;-80
2023/11/15 04:02:19;;;;;;;10.45;3.45;;;;;;;8.92;73.14;93341.13;4888456;29;20054;-80
2023/11/15 04:04:45;;;;;;;9.63;2.80;;;;;;;8.92;73.44;93375.69;4888362;29;20033;-80
2023/11/15 04:07:10;;;;;;;6.65;2.92;;;;;;;8.95;73.41;93335.16;4887330;29;20036;-80
2023/11/15 04:09:36;;;;;;;9.32;3.30;;;;;;;8.98;73.26;93300.00;4887208;29;20330;-80
2023/11/15 04:12:02;;;;;;;9.80;2.97;;;;;;;8.97;72.85;93370.19;4887035;29;20041;-80
2023/11/15 04:14:27;;;;;;;11.65;3.63;;;;;;;9.02;72.67;93326.75;4888307;29;20064;-80
2023/11/15 04:16:53;;;;;;;17.80;3.92;;;;;;;9.08;72.81;93311.38;4888283;29;20097;-80
2023/11/15 04:19:23;;;;;;;8.15;3.15;;;;;;;9.10;72.48;93352.53;4888282;29;20410;-80
2023/11/15 04:21:49;;;;;;;10.90;3.00;;;;;;;9.15;71.92;93295.75;4888376;29;20264;-80
2023/11/15 04:24:17;;;;;;;12.75;3.67;;;;;;;9.12;72.31;93321.09;4890596;29;20031;-80
2023/11/15 04:26:44;;;;;;;10.90;4.30;;;;;;;9.15;71.98;93378.16;4890463;29;20020;-80
2023/11/15 04:29:09;;;;;;;14.57;4.13;;;;;;;9.15;72.02;93312.47;4890259;29;20024;-81
2023/11/15 04:31:36;;;;;;;8.05;3.38;;;;;;;9.16;72.30;93303.41;4891544;29;20278;-81
2023/11/15 04:34:02;;;;;;;12.13;3.47;;;;;;;9.19;72.13;93275.41;4891627;29;20235;-80
2023/11/15 04:36:31;;;;;;;6.75;3.15;;;;;;;9.20;72.19;93362.81;4891392;29;20029;-81
2023/11/15 04:38:57;;;;;;;7.78;3.28;;;;;;;9.12;71.95;93281.22;4890137;29;20074;-81
2023/11/15 04:41:23;;;;;;;13.30;3.40;;;;;;;9.14;72.62;93304.78;4891274;29;20096;-81
2023/11/15 04:43:49;;;;;;;8.27;3.13;;;;;;;9.10;72.26;93327.78;4891379;29;20089;-81
2023/11/15 04:46:14;;;;;;;9.30;3.47;;;;;;;9.09;72.44;93281.81;4891303;29;20021;-80
2023/11/15 04:48:40;;;;;;;12.93;3.72;;;;;;;9.15;72.69;93306.38;4891365;29;20045;-80
2023/11/15 04:51:05;;;;;;;7.97;3.58;;;;;;;9.13;72.37;93335.16;4891205;29;20043;-80
2023/11/15 04:53:31;;;;;;;8.85;4.28;;;;;;;9.10;72.62;93254.16;4890782;29;20063;-80
2023/11/15 04:55:57;;;;;;;19.05;6.53;;;;;;;9.13;72.87;93284.63;4890953;29;20029;-82
2023/11/15 04:58:22;;;;;;;18.40;5.85;;;;;;;9.12;72.65;93291.84;4890971;29;20307;-82
2023/11/15 05:00:48;;;;;;;13.90;5.93;;;;;;;9.11;73.16;93298.25;4891028;29;20025;-83
2023/11/15 05:03:13;;;;;;;8.75;4.85;;;;;;;9.14;73.19;93267.56;4891052;29;20029;-83
2023/11/15 05:05:42;;;;;;;18.65;4.63;;;;;;;9.20;73.27;93271.66;4890999;29;20335;-82
2023/11/15 05:08:09;;;;;;;11.85;5.22;;;;;;;9.20;73.13;93263.69;4890908;29;20245;-83
2023/11/15 05:10:35;;;;;;;12.95;3.97;;;;;;;9.19;73.28;93315.28;4890675;29;20247;-83
2023/11/15 05:13:00;;;;;;;10.18;4.18;;;;;;;9.10;73.00;93293.22;4889625;29;20032;-82
2023/11/15 05:15:26;;;;;;;12.10;4.18;;;;;;;9.05;73.21;93254.31;4890790;29;20021;-80
2023/11/15 05:17:51;;;;;;;8.43;3.13;;;;;;;9.00;73.74;93255.28;4890809;29;20207;-79
2023/11/15 05:20:16;;;;;;;7.90;2.40;;;;;;;8.98;73.96;93297.34;4890590;29;20045;-84
2023/11/15 05:22:42;;;;;;;9.98;2.78;;;;;;;8.97;74.00;93290.44;4890790;29;20338;-85
2023/11/15 05:25:07;;;;;;;5.78;2.50;;;;;;;9.00;74.03;93273.88;4890806;29;20020;-85
2023/11/15 05:27:33;;;;;;;5.82;2.28;;;;;;;9.07;74.02;93275.28;4890803;29;20021;-83
2023/11/15 05:29:58;;;;;;;7.35;3.38;;;;;;;9.13;73.67;93282.75;4889352;29;20025;-80
2023/11/15 05:32:24;;;;;;;7.15;2.63;;;;;;;9.21;73.87;93252.69;4888944;29;20049;-84
2023/11/15 05:34:50;;;;;;;9.98;2.85;;;;;;;9.29;73.61;93248.44;4889810;29;20035;-80
2023/11/15 05:37:15;;;;;;;6.75;2.42;;;;;;;9.32;73.25;93247.81;4890312;29;20033;-80
2023/11/15 05:39:41;;;;;;;9.65;2.10;;;;;;;9.40;73.32;93260.31;4889113;29;20060;-80
2023/11/15 05:42:07;;;;;;;4.88;2.20;;;;;;;9.48;72.86;93239.28;4890455;29;20021;-80
2023/11/15 05:44:33;;;;;;;10.13;2.95;;;;;;;9.58;72.51;93266.31;4890170;29;20092;-80
2023/11/15 05:47:00;;;;;;;7.65;2.30;;;;;;;9.62;72.37;93253.91;4890243;29;20032;-82
2023/11/15 05:49:26;;;;;;;8.73;2.08;;;;;;;9.66;72.50;93262.03;4889940;29;20028;-81
2023/11/15 05:51:51;;;;;;;10.68;2.97;;;;;;;9.72;72.16;93254.66;4890270;29;20045;-82
2023/11/15 05:54:17;;;;;;;7.05;2.75;;;;;;;9.76;71.79;93250.25;4889838;29;20089;-82
2023/11/15 05:56:46;;;;;;;10.73;3.55;;;;;;;9.77;71.31;93311.16;4889656;29;20316;-82
2023/11/15 05:59:13;;;;;;;10.95;3.75;;;;;;;9.73;71.42;93243.72;4889567;29;20065;-81
2023/11/15 06:01:38;;;;;;;8.98;3.63;;;;;;;9.77;71.85;93219.88;4890281;29;20207;-82
2023/11/15 06:04:04;;;;;;;9.15;2.85;;;;;;;9.76;71.64;93276.88;4888712;29;20056;-82
2023/11/15 06:06:29;;;;;;;11.45;3.70;;;;;;;9.80;71.59;93262.59;4889871;29;20029;-82
2023/11/15 06:08:55;;;;;;;7.65;3.10;;;;;;;9.84;72.05;93262.72;4888593;29;20033;-82
2023/11/15 06:11:21;;;;;;;6.35;2.92;;;;;;;9.88;71.90;93265.53;4889919;29;20040;-82
2023/11/15 06:13:46;;;;;;;7.88;2.58;;;;;;;9.94;71.84;93251.72;4889738;29;20033;-82
2023/11/15 06:16:12;;;;;;;9.70;2.95;;;;;;;10.06;71.47;93248.34;4889603;29;20033;-82
2023/11/15 06:18:38;;;;;;;6.55;2.40;;;;;;;10.16;71.19;93269.25;4889761;29;20037;-82
2023/11/15 06:21:04;;;;;;;11.10;2.92;;;;;;;10.27;71.06;93293.63;4889477;29;20099;-82
2023/11/15 06:23:29;;;;;;;10.65;2.42;;;;;;;10.38;70.79;93272.72;4889461;29;20033;-82
2023/11/15 06:25:55;;;;;;;9.60;2.58;;;;;;;10.46;70.58;93261.22;4889552;29;20044;-81
2023/11/15 06:28:20;;;;;;;7.75;2.60;;;;;;;10.52;70.14;93249.28;4889513;29;20029;-82
2023/11/15 06:30:47;;;;;;;9.80;2.92;;;;;;;10.63;69.39;93277.06;4889459;29;20029;-84
2023/11/15 06:33:13;;;;;;;6.28;1.98;;;;;;;10.82;68.95;93305.13;4888482;29;20319;-80
2023/11/15 06:35:38;;;;;;;11.82;3.05;;;;;;;10.92;68.18;93266.63;4889362;29;20048;-81
2023/11/15 06:38:05;;;;;;;11.88;2.72;;;;;;;11.04;68.66;93247.97;4889282;29;20037;-82
2023/11/15 06:40:31;;;;;;;12.43;2.67;;;;;;;11.15;67.67;93291.00;4889240;29;20032;-82
2023/11/15 06:42:56;;;;;;;5.75;2.30;;;;;;;11.26;67.46;93273.47;4889202;29;20032;-81
2023/11/15 06:45:22;;;;;;;7.50;2.38;;;;;;;11.34;67.26;93280.59;4888846;29;20025;-80
2023/11/15 06:47:51;;;;;;;14.90;3.22;;;;;;;11.47;66.89;93278.72;4888941;29;20033;-77
2023/11/15 06:50:18;;;;;;;12.18;2.53;;;;;;;11.55;66.83;93293.09;4889052;29;20230;-76
2023/11/15 06:52:45;;;;;;;11.73;3.15;;;;;;;11.60;66.57;93285.66;4888913;29;20049;-78
2023/11/15 06:55:11;;;;;;;9.40;2.15;;;;;;;11.68;66.31;93267.16;4889260;29;20211;-78
2023/11/15 06:57:37;;;;;;;7.20;2.30;;;;;;;11.76;66.14;93288.41;4889289;29;20036;-78
2023/11/15 07:00:08;;;;;;;8.57;2.50;;;;;;;11.81;66.12;93282.09;4887793;29;20060;-78
2023/11/15 07:02:34;;;;;;;5.65;2.83;;;;;;;11.90;66.35;93287.34;4889022;29;20040;-78
2023/11/15 07:04:59;;;;;;;14.43;2.90;;;;;;;11.94;66.24;93267.63;4887763;29;20215;-78
2023/11/15 07:07:25;;;;;;;19.83;3.10;;;;;;;12.04;66.00;93277.09;4888837;29;20021;-78
2023/11/15 07:09:50;;;;;;;9.18;2.30;;;;;;;12.15;65.32;93296.09;4887743;29;20021;-78
2023/11/15 07:12:17;;;;;;;7.95;2.42;;;;;;;12.28;64.35;93286.19;4887340;29;20083;-79
2023/11/15 07:14:44;;;;;;;6.95;2.80;;;;;;;12.41;63.88;93285.03;4886912;29;20223;-77
2023/11/15 07:17:12;;;;;;;8.82;2.25;;;;;;;12.54;63.30;93281.22;4887203;29;20081;-78
2023/11/15 07:19:38;;;;;;;7.22;2.30;;;;;;;12.70;62.94;93259.09;4885814;29;20073;-78
2023/11/15 07:22:04;;;;;;;14.95;3.08;;;;;;;12.80;62.89;93277.31;4886750;29;20386;-79
2023/11/15 07:24:29;;;;;;;15.60;3.72;;;;;;;12.96;62.35;93270.13;4886753;29;20338;-79
2023/11/15 07:26:56;;;;;;;11.13;3.13;;;;;;;13.14;61.78;93288.53;4886822;29;20017;-77
2023/11/15 07:29:22;;;;;;;18.65;3.92;;;;;;;13.25;61.40;93266.31;4886599;29;20320;-78
2023/11/15 07:31:52;;;;;;;9.93;2.75;;;;;;;13.32;60.39;93295.16;4887732;29;20035;-79
2023/11/15 07:34:22;;;;;;;13.00;2.70;;;;;;;13.51;59.34;93274.97;4888504;29;20024;-80
2023/11/15 07:36:55;;;;;;;11.32;3.22;;;;;;;13.64;59.77;93290.63;4888178;29;20029;-80
2023/11/15 07:39:24;;;;;;;7.93;1.95;;;;;;;13.75;58.88;93274.03;4887257;29;20029;-80
2023/11/15 07:41:50;;;;;;;11.32;2.70;;;;;;;13.79;58.95;93283.69;4886819;29;20029;-79
2023/11/15 07:44:18;;;;;;;9.68;2.58;;;;;;;13.84;58.33;93272.72;4886982;29;20029;-79
2023/11/15 07:46:46;;;;;;;9.93;2.95;;;;;;;13.84;58.43;93278.09;4887498;29;20028;-79
2023/11/15 07:49:18;;;;;;;7.32;2.78;;;;;;;13.91;58.28;93280.13;4887493;29;20365;-79
2023/11/15 07:51:46;;;;;;;7.72;2.58;;;;;;;13.99;58.13;93281.09;4888121;29;20223;-80
2023/11/15 07:54:12;;;;;;;10.48;3.13;;;;;;;14.04;58.04;93286.97;4888187;29;20053;-80
2023/11/15 07:56:37;;;;;;;10.32;3.17;;;;;;;14.13;57.37;93276.03;4889423;29;20077;-74
2023/11/15 07:59:04;;;;;;;7.75;2.67;;;;;;;14.18;59.23;93294.53;4891708;29;20035;-74
2023/11/15 08:01:29;;;;;;;12.25;2.60;;;;;;;14.28;58.04;93271.00;4891872;29;20028;-74
2023/11/15 08:03:55;;;;;;;8.93;2.78;;;;;;;14.40;57.96;93292.31;4891771;29;20040;-74
2023/11/15 08:06:20;;;;;;;12.00;2.30;;;;;;;14.51;57.57;93274.56;4891599;29;20041;-74
2023/11/15 08:08:47;;;;;;;11.57;2.92;;;;;;;14.61;57.63;93282.09;4891709;29;20323;-74
2023/11/15 08:11:13;;;;;;;11.00;2.30;;;;;;;14.72;57.20;93268.13;4891680;29;20323;-74
2023/11/15 08:13:39;;;;;;;10.50;2.92;;;;;;;14.81;56.87;93288.22;4891720;29;20033;-74
2023/11/15 08:16:09;;;;;;;12.38;3.08;;;;;;;14.94;56.98;93272.75;4891432;29;20100;-75
2023/11/15 08:18:34;;;;;;;9.38;2.92;;;;;;;15.02;56.15;93274.44;4891513;29;20215;-74
2023/11/15 08:21:02;;;;;;;7.03;2.67;;;;;;;15.14;55.61;93278.91;4891482;29;20096;-75
2023/11/15 08:23:28;;;;;;;14.60;3.33;;;;;;;15.26;55.17;93269.88;4891476;29;20025;-74
2023/11/15 08:25:53;;;;;;;11.68;3.20;;;;;;;15.34;55.15;93289.59;4891356;29;20028;-74
2023/11/15 08:28:20;;;;;;;14.02;3.10;;;;;;;15.43;55.17;93271.34;4891370;29;20024;-74
2023/11/15 08:30:45;;;;;;;16.60;3.83;;;;;;;15.52;55.53;93285.28;4891300;29;20029;-75
2023/11/15 08:33:16;;;;;;;5.63;2.55;;;;;;;15.61;54.37;93288.53;4891322;29;20395;-75
2023/11/15 08:35:43;;;;;;;8.23;2.65;;;;;;;15.70;54.29;93284.84;4891332;29;20320;-75
2023/11/15 08:38:09;;;;;;;9.73;2.85;;;;;;;15.71;54.02;93276.38;4891303;29;20043;-75
2023/11/15 08:40:37;;;;;;;9.25;2.83;;;;;;;15.70;54.16;93280.22;4891074;29;20275;-75
2023/11/15 08:43:03;;;;;;;10.02;3.17;;;;;;;15.71;54.14;93294.44;4891015;29;20036;-75
2023/11/15 08:45:28;;;;;;;14.30;4.18;;;;;;;15.74;53.39;93294.53;4891104;29;20039;-75
2023/11/15 08:47:56;;;;;;;9.20;3.20;;;;;;;15.69;53.93;93310.91;4891276;29;20056;-75
2023/11/15 08:50:24;;;;;;;6.68;2.65;;;;;;;15.73;54.03;93319.06;4890815;29;20104;-75
2023/11/15 08:52:49;;;;;;;12.38;4.22;;;;;;;15.70;53.29;93333.97;4891020;29;20037;-80
2023/11/15 08:55:14;;;;;;;18.02;3.25;;;;;;;15.70;53.69;93328.59;4889608;29;20029;-81
2023/11/15 08:57:40;;;;;;;17.05;3.63;;;;;;;15.71;53.77;93319.38;4890050;29;20096;-81
2023/11/15 09:00:12;;;;;;;11.63;3.72;;;;;;;15.59;53.50;93322.25;4891208;29;20029;-81
2023/11/15 09:02:44;;;;;;;16.30;4.00;;;;;;;15.59;54.31;93316.88;4889842;29;20391;-81
2023/11/15 09:05:11;;;;;;;13.90;4.50;;;;;;;15.63;54.37;93306.97;4889727;29;20025;-81
2023/11/15 09:07:37;;;;;;;11.98;3.55;;;;;;;15.67;54.04;93313.16;4889499;29;20032;-81
2023/11/15 09:10:04;;;;;;;10.93;3.53;;;;;;;15.76;54.34;93319.13;4890704;29;20276;-81
2023/11/15 09:12:31;;;;;;;6.50;3.20;;;;;;;15.83;54.62;93321.94;4890746;29;20025;-81
2023/11/15 09:14:59;;;;;;;9.15;3.78;;;;;;;15.87;54.51;93337.34;4890489;29;20137;-81
2023/11/15 09:17:25;;;;;;;12.50;4.07;;;;;;;15.78;54.85;93330.28;4890532;29;20029;-81
2023/11/15 09:19:56;;;;;;;16.08;4.20;;;;;;;15.74;54.36;93339.44;4889542;29;20349;-81
2023/11/15 09:22:22;;;;;;;13.60;4.68;;;;;;;15.61;54.33;93353.00;4890485;29;20036;-82
2023/11/15 09:24:53;;;;;;;20.60;5.18;;;;;;;15.53;54.29;93361.28;4890498;29;20188;-82
2023/11/15 09:27:22;;;;;;;33.10;5.30;;;;;;;15.34;54.96;93372.81;4890597;29;20210;-82
2023/11/15 09:29:48;;;;;;;17.38;5.15;;;;;;;15.23;55.25;93389.50;4889194;29;20222;-81
2023/11/15 09:32:14;;;;;;;17.73;5.07;;;;;;;15.05;55.95;93386.44;4890518;29;20028;-81
2023/11/15 09:34:40;;;;;;;24.80;5.43;;;;;;;14.89;56.28;93393.78;4890554;29;20021;-82
2023/11/15 09:37:05;;;;;;;11.50;4.53;;;;;;;14.74;57.54;93410.72;4890249;29;20045;-81
2023/11/15 09:39:30;;;;;;;11.82;4.75;;;;;;;14.66;57.92;93422.41;4888938;29;20082;-81
2023/11/15 09:41:57;;;;;;;17.85;5.65;;;;;;;14.53;58.95;93438.56;4889256;29;20342;-82
2023/11/15 09:44:24;;;;;;;19.08;5.57;;;;;;;14.46;59.13;93438.38;4890383;29;20268;-81
2023/11/15 09:46:57;;;;;;;8.48;4.03;;;;;;;14.38;59.32;93448.16;4888995;29;20070;-81
2023/11/15 09:49:25;;;;;;;15.95;5.35;;;;;;;14.33;59.64;93448.44;4890248;29;20049;-81
2023/11/15 09:51:52;;;;;;;22.95;5.07;;;;;;;14.32;61.16;93470.22;4890104;29;20060;-81
2023/11/15 09:54:22;;;;;;;14.02;4.47;;;;;;;14.15;66.41;93480.16;4889670;29;20052;-81
2023/11/15 09:56:49;;;;;;;14.90;4.60;;;;;;;13.95;68.49;93460.50;4890078;29;20035;-81
2023/11/15 09:59:18;;;;;;;12.77;4.82;;;;;;;13.89;71.48;93466.47;4888919;29;20052;-81
2023/11/15 10:01:48;;;;;;;8.95;2.63;;;;;;;13.36;74.85;93483.41;4889956;29;20024;-81
2023/11/15 10:04:25;;;;;;;5.97;2.35;;;;;;;13.00;78.41;93471.63;4889630;29;20028;-81
2023/11/15 10:07:01;;;;;;;7.25;2.60;;;;;;;12.69;80.00;93474.13;4888652;29;20384;-81
2023/11/15 10:09:34;;;;;;;7.53;3.03;;;;;;;12.40;82.66;93470.56;4889713;29;20251;-81
2023/11/15 10:12:03;;;;;;;5.68;1.60;;;;;;;12.17;83.95;93473.66;4889838;29;20025;-81
2023/11/15 10:14:29;;;;;;;8.13;2.42;;;;;;;11.99;86.01;93474.97;4888395;29;20097;-82
2023/11/15 10:16:55;;;;;;;5.72;1.70;;;;;;;11.80;87.73;93478.88;4889320;29;20319;-81
2023/11/15 10:19:26;;;;;;;4.72;1.17;;;;;;;11.71;88.09;93488.88;4889007;29;20205;-81
2023/11/15 10:22:14;;;;;;;1.85;0.98;;;;;;;11.53;88.41;93492.81;4888401;29;20052;-81
2023/11/15 10:24:40;;;;;;;1.77;0.82;;;;;;;11.32;89.30;93501.59;4888408;29;20035;-81
2023/11/15 10:27:10;;;;;;;2.13;0.93;;;;;;;11.24;90.20;93502.44;4889335;29;20234;-81
2023/11/15 10:29:39;;;;;;;1.13;0.60;;;;;;;11.19;91.34;93505.28;4888300;29;20349;-81
2023/11/15 10:32:04;;;;;;;1.80;0.70;;;;;;;11.07;91.36;93510.56;4888066;29;20029;-81
2023/11/15 10:34:32;;;;;;;1.33;0.70;;;;;;;11.05;91.11;93526.88;4889229;29;20143;-81
2023/11/15 10:37:11;;;;;;;1.40;0.90;;;;;;;10.99;91.65;93530.84;4888094;29;20044;-80
2023/11/15 10:39:43;;;;;;;1.05;0.57;;;;;;;10.91;92.54;93534.34;4889291;29;20280;-80
2023/11/15 10:42:15;;;;;;;9.57;0.93;;;;;;;10.94;92.64;93547.81;4889258;29;20028;-80
2023/11/15 10:44:45;;;;;;;12.15;0.88;;;;;;;10.77;92.72;93540.69;4888039;29;20064;-79
2023/11/15 10:47:19;;;;;;;0.85;0.50;;;;;;;10.66;92.94;93557.38;4888100;29;20033;-80
2023/11/15 10:49:52;;;;;;;1.25;0.60;;;;;;;10.49;94.92;93543.00;4887737;29;20037;-80
2023/11/15 10:52:21;;;;;;;1.00;0.57;;;;;;;10.38;95.65;93555.09;4887561;29;20068;-80
2023/11/15 10:54:50;;;;;;;1.95;0.65;;;;;;;10.28;94.76;93560.75;4888397;29;20343;-80
2023/11/15 10:57:18;;;;;;;0.88;0.50;;;;;;;10.22;95.04;93554.84;4888896;29;20032;-80
2023/11/15 10:59:47;;;;;;;0.55;0.30;;;;;;;10.07;94.57;93553.44;4888621;29;20073;-80
2023/11/15 11:02:14;;;;;;;1.67;0.73;;;;;;;10.07;95.38;93574.75;4887814;29;20053;-80
2023/11/15 11:04:41;;;;;;;1.17;0.63;;;;;;;9.99;96.26;93579.00;4888936;29;20029;-80
2023/11/15 11:07:14;;;;;;;1.85;0.75;;;;;;;10.00;96.75;93582.44;4888953;29;20104;-80
2023/11/15 11:09:48;;;;;;;1.33;0.65;;;;;;;9.99;97.27;93570.22;4889183;29;20103;-80
2023/11/15 11:12:18;;;;;;;1.27;0.60;;;;;;;9.99;97.69;93562.22;4887629;29;20052;-80
2023/11/15 11:14:46;;;;;;;1.10;0.60;;;;;;;9.94;97.04;93573.84;4888792;29;20044;-80
2023/11/15 11:17:34;;;;;;;0.93;0.40;;;;;;;9.96;96.69;93562.88;4888718;29;20029;-79
2023/11/15 11:20:09;;;;;;;0.73;0.40;;;;;;;9.87;97.13;93562.09;4888656;29;20326;-79
2023/11/15 11:22:35;;;;;;;4.88;1.10;;;;;;;9.92;98.86;93577.91;4888572;29;20036;-79
2023/11/15 11:25:10;;;;;;;3.33;0.80;;;;;;;9.88;98.62;93582.31;4888604;29;20081;-84
2023/11/15 11:27:43;;;;;;;1.52;0.70;;;;;;;9.82;98.26;93587.00;4887606;29;20080;-83
2023/11/15 11:30:14;;;;;;;2.40;0.50;;;;;;;9.73;97.82;93587.00;4889220;29;20025;-83
2023/11/15 11:32:40;;;;;;;0.60;0.40;;;;;;;9.75;98.40;93584.00;4892478;29;20089;-81
2023/11/15 11:35:12;;;;;;;0.73;0.40;;;;;;;9.58;98.40;93590.91;4891163;29;20051;-81